sensor_id;sensor_type;location;lat;lon;timestamp;temperature;humidity
2657;DHT22;1338;48.176;11.792;2022-09-21T00:01:03;3.90;1.00
2657;DHT22;1338;48.176;11.792;2022-09-21T00:03:32;4.10;1.00
2657;DHT22;1338;48.176;11.792;2022-09-21T00:06:04;3.90;1.00
2657;DHT22;1338;48.176;11.792;2022-09-21T00:08:34;4.20;1.00
2657;DHT22;1338;48.176;11.792;2022-09-21T00:11:04;4.20;1.00
2657;DHT22;1338;48.176;11.792;2022-09-21T00:13:33;4.20;1.00
2657;DHT22;1338;48.176;11.792;2022-09-21T00:16:04;3.90;1.00
2657;DHT22;1338;48.176;11.792;2022-09-21T00:18:33;3.90;1.00
2657;DHT22;1338;48.176;11.792;2022-09-21T00:21:05;3.90;1.00
2657;DHT22;1338;48.176;11.792;2022-09-21T00:23:36;4.10;3.50
2657;DHT22;1338;48.176;11.792;2022-09-21T00:26:06;4.00;1.00
2657;DHT22;1338;48.176;11.792;2022-09-21T00:28:34;4.20;69.70
2657;DHT22;1338;48.176;11.792;2022-09-21T00:31:03;4.50;91.40
2657;DHT22;1338;48.176;11.792;2022-09-21T00:33:32;4.50;53.00
2657;DHT22;1338;48.176;11.792;2022-09-21T00:36:02;4.50;1.00
2657;DHT22;1338;48.176;11.792;2022-09-21T00:38:31;4.60;1.00
2657;DHT22;1338;48.176;11.792;2022-09-21T00:41:00;4.50;1.00
2657;DHT22;1338;48.176;11.792;2022-09-21T00:43:28;4.50;1.00
2657;DHT22;1338;48.176;11.792;2022-09-21T00:46:00;4.60;1.00
2657;DHT22;1338;48.176;11.792;2022-09-21T00:48:29;4.70;1.00
2657;DHT22;1338;48.176;11.792;2022-09-21T00:51:00;4.70;1.00
2657;DHT22;1338;48.176;11.792;2022-09-21T00:53:30;4.70;1.00
2657;DHT22;1338;48.176;11.792;2022-09-21T00:56:02;4.80;1.00
2657;DHT22;1338;48.176;11.792;2022-09-21T00:58:34;4.70;1.00
2657;DHT22;1338;48.176;11.792;2022-09-21T01:01:03;4.80;1.00
2657;DHT22;1338;48.176;11.792;2022-09-21T01:03:32;4.70;1.00
2657;DHT22;1338;48.176;11.792;2022-09-21T01:06:00;4.50;1.00
2657;DHT22;1338;48.176;11.792;2022-09-21T01:08:29;4.50;1.00
2657;DHT22;1338;48.176;11.792;2022-09-21T01:11:21;4.40;1.00
2657;DHT22;1338;48.176;11.792;2022-09-21T01:14:04;4.40;1.00
2657;DHT22;1338;48.176;11.792;2022-09-21T01:16:42;4.40;1.40
2657;DHT22;1338;48.176;11.792;2022-09-21T01:19:30;4.10;1.00
2657;DHT22;1338;48.176;11.792;2022-09-21T01:22:08;4.20;57.70
2657;DHT22;1338;48.176;11.792;2022-09-21T01:24:54;4.30;99.90
2657;DHT22;1338;48.176;11.792;2022-09-21T01:30:12;4.20;99.90
2657;DHT22;1338;48.176;11.792;2022-09-21T01:32:44;4.00;99.90
2657;DHT22;1338;48.176;11.792;2022-09-21T01:35:17;4.20;99.90
2657;DHT22;1338;48.176;11.792;2022-09-21T01:37:50;4.20;99.90
2657;DHT22;1338;48.176;11.792;2022-09-21T01:40:21;4.20;99.90
2657;DHT22;1338;48.176;11.792;2022-09-21T01:42:52;4.10;99.90
2657;DHT22;1338;48.176;11.792;2022-09-21T01:45:25;4.30;99.90
2657;DHT22;1338;48.176;11.792;2022-09-21T01:47:56;4.10;99.90
2657;DHT22;1338;48.176;11.792;2022-09-21T01:50:29;3.90;99.90
2657;DHT22;1338;48.176;11.792;2022-09-21T01:53:02;3.70;99.90
2657;DHT22;1338;48.176;11.792;2022-09-21T01:55:38;3.60;99.90
2657;DHT22;1338;48.176;11.792;2022-09-21T01:58:11;3.60;99.90
2657;DHT22;1338;48.176;11.792;2022-09-21T02:00:46;3.40;99.90
2657;DHT22;1338;48.176;11.792;2022-09-21T02:03:20;3.60;99.90
2657;DHT22;1338;48.176;11.792;2022-09-21T02:05:49;3.50;99.90
2657;DHT22;1338;48.176;11.792;2022-09-21T02:08:17;3.60;99.90
2657;DHT22;1338;48.176;11.792;2022-09-21T02:10:48;3.60;99.90
2657;DHT22;1338;48.176;11.792;2022-09-21T02:13:18;3.60;99.90
2657;DHT22;1338;48.176;11.792;2022-09-21T02:16:00;3.90;1.00
2657;DHT22;1338;48.176;11.792;2022-09-21T02:18:36;3.90;1.00
2657;DHT22;1338;48.176;11.792;2022-09-21T02:21:14;3.90;1.00
2657;DHT22;1338;48.176;11.792;2022-09-21T02:23:50;3.80;1.00
2657;DHT22;1338;48.176;11.792;2022-09-21T02:26:25;3.70;1.00
2657;DHT22;1338;48.176;11.792;2022-09-21T02:28:59;3.70;1.00
2657;DHT22;1338;48.176;11.792;2022-09-21T02:31:33;3.50;1.00
2657;DHT22;1338;48.176;11.792;2022-09-21T02:34:08;3.50;1.00
2657;DHT22;1338;48.176;11.792;2022-09-21T02:36:42;3.40;1.00
2657;DHT22;1338;48.176;11.792;2022-09-21T02:39:15;3.40;99.90
2657;DHT22;1338;48.176;11.792;2022-09-21T02:41:51;3.40;99.90
2657;DHT22;1338;48.176;11.792;2022-09-21T02:44:27;3.50;1.00
2657;DHT22;1338;48.176;11.792;2022-09-21T02:47:03;3.50;1.00
2657;DHT22;1338;48.176;11.792;2022-09-21T02:49:37;3.50;1.00
2657;DHT22;1338;48.176;11.792;2022-09-21T02:52:11;3.30;99.90
2657;DHT22;1338;48.176;11.792;2022-09-21T02:54:42;3.30;99.90
2657;DHT22;1338;48.176;11.792;2022-09-21T02:57:13;3.40;99.90
2657;DHT22;1338;48.176;11.792;2022-09-21T02:59:43;3.40;99.90
2657;DHT22;1338;48.176;11.792;2022-09-21T03:02:12;3.30;99.90
2657;DHT22;1338;48.176;11.792;2022-09-21T03:04:43;3.50;99.90
2657;DHT22;1338;48.176;11.792;2022-09-21T03:07:14;3.30;99.90
2657;DHT22;1338;48.176;11.792;2022-09-21T03:09:43;3.20;99.90
2657;DHT22;1338;48.176;11.792;2022-09-21T03:12:11;3.20;99.90
2657;DHT22;1338;48.176;11.792;2022-09-21T03:14:39;3.30;99.90
2657;DHT22;1338;48.176;11.792;2022-09-21T03:17:07;3.30;99.90
2657;DHT22;1338;48.176;11.792;2022-09-21T03:19:37;3.20;99.90
2657;DHT22;1338;48.176;11.792;2022-09-21T03:22:05;3.20;99.90
2657;DHT22;1338;48.176;11.792;2022-09-21T03:24:33;3.30;99.90
2657;DHT22;1338;48.176;11.792;2022-09-21T03:27:14;3.40;99.90
2657;DHT22;1338;48.176;11.792;2022-09-21T03:29:42;3.30;99.90
2657;DHT22;1338;48.176;11.792;2022-09-21T03:32:11;3.40;99.90
2657;DHT22;1338;48.176;11.792;2022-09-21T03:34:41;3.50;99.90
2657;DHT22;1338;48.176;11.792;2022-09-21T03:37:09;3.40;99.90
2657;DHT22;1338;48.176;11.792;2022-09-21T03:39:37;3.40;99.90
2657;DHT22;1338;48.176;11.792;2022-09-21T03:42:05;3.40;99.90
2657;DHT22;1338;48.176;11.792;2022-09-21T03:44:35;3.30;99.90
2657;DHT22;1338;48.176;11.792;2022-09-21T03:47:04;3.40;99.90
2657;DHT22;1338;48.176;11.792;2022-09-21T03:49:33;3.50;99.90
2657;DHT22;1338;48.176;11.792;2022-09-21T03:52:03;3.40;99.90
2657;DHT22;1338;48.176;11.792;2022-09-21T03:54:31;3.40;99.90
2657;DHT22;1338;48.176;11.792;2022-09-21T03:57:00;3.40;99.90
2657;DHT22;1338;48.176;11.792;2022-09-21T03:59:28;3.40;99.90
2657;DHT22;1338;48.176;11.792;2022-09-21T04:01:56;3.40;99.90
2657;DHT22;1338;48.176;11.792;2022-09-21T04:04:24;3.40;99.90
2657;DHT22;1338;48.176;11.792;2022-09-21T04:06:52;3.30;99.90
2657;DHT22;1338;48.176;11.792;2022-09-21T04:09:21;3.30;99.90
2657;DHT22;1338;48.176;11.792;2022-09-21T04:11:49;3.30;99.90
2657;DHT22;1338;48.176;11.792;2022-09-21T04:14:18;3.20;99.90
2657;DHT22;1338;48.176;11.792;2022-09-21T04:16:46;3.10;99.90
2657;DHT22;1338;48.176;11.792;2022-09-21T04:19:14;3.00;99.90
2657;DHT22;1338;48.176;11.792;2022-09-21T04:21:42;3.00;99.90
2657;DHT22;1338;48.176;11.792;2022-09-21T04:24:10;2.90;99.90
2657;DHT22;1338;48.176;11.792;2022-09-21T04:26:40;2.90;99.90
2657;DHT22;1338;48.176;11.792;2022-09-21T04:29:08;2.90;99.90
2657;DHT22;1338;48.176;11.792;2022-09-21T04:31:37;3.00;99.90
2657;DHT22;1338;48.176;11.792;2022-09-21T04:34:05;2.90;99.90
2657;DHT22;1338;48.176;11.792;2022-09-21T04:36:33;2.90;99.90
2657;DHT22;1338;48.176;11.792;2022-09-21T04:39:03;3.00;99.90
2657;DHT22;1338;48.176;11.792;2022-09-21T04:41:31;4.50;1.00
2657;DHT22;1338;48.176;11.792;2022-09-21T04:44:01;6.20;1.00
2657;DHT22;1338;48.176;11.792;2022-09-21T04:46:29;8.60;1.00
2657;DHT22;1338;48.176;11.792;2022-09-21T04:51:26;6.00;1.00
2657;DHT22;1338;48.176;11.792;2022-09-21T04:53:54;4.10;99.90
2657;DHT22;1338;48.176;11.792;2022-09-21T04:56:22;2.70;1.00
2657;DHT22;1338;48.176;11.792;2022-09-21T04:58:50;2.90;1.00
2657;DHT22;1338;48.176;11.792;2022-09-21T05:01:20;2.50;1.00
2657;DHT22;1338;48.176;11.792;2022-09-21T05:03:48;2.80;1.00
2657;DHT22;1338;48.176;11.792;2022-09-21T05:06:16;2.70;1.00
2657;DHT22;1338;48.176;11.792;2022-09-21T05:08:44;2.60;49.50
2657;DHT22;1338;48.176;11.792;2022-09-21T05:11:30;2.70;99.90
2657;DHT22;1338;48.176;11.792;2022-09-21T05:13:58;2.60;99.90
2657;DHT22;1338;48.176;11.792;2022-09-21T05:16:28;2.60;99.90
2657;DHT22;1338;48.176;11.792;2022-09-21T05:18:56;2.40;99.90
2657;DHT22;1338;48.176;11.792;2022-09-21T05:21:24;2.40;99.90
2657;DHT22;1338;48.176;11.792;2022-09-21T05:23:53;2.20;99.90
2657;DHT22;1338;48.176;11.792;2022-09-21T05:26:22;2.20;99.90
2657;DHT22;1338;48.176;11.792;2022-09-21T05:28:51;2.30;99.90
2657;DHT22;1338;48.176;11.792;2022-09-21T05:31:34;2.30;99.90
2657;DHT22;1338;48.176;11.792;2022-09-21T05:34:14;2.30;99.90
2657;DHT22;1338;48.176;11.792;2022-09-21T05:36:51;2.70;99.90
2657;DHT22;1338;48.176;11.792;2022-09-21T05:39:23;3.20;1.00
2657;DHT22;1338;48.176;11.792;2022-09-21T05:41:52;3.60;1.00
2657;DHT22;1338;48.176;11.792;2022-09-21T05:44:21;3.20;99.90
2657;DHT22;1338;48.176;11.792;2022-09-21T05:46:54;3.00;99.90
2657;DHT22;1338;48.176;11.792;2022-09-21T05:49:33;3.30;99.90
2657;DHT22;1338;48.176;11.792;2022-09-21T05:52:10;3.10;99.90
2657;DHT22;1338;48.176;11.792;2022-09-21T05:54:51;3.40;99.90
2657;DHT22;1338;48.176;11.792;2022-09-21T05:57:25;3.40;99.90
2657;DHT22;1338;48.176;11.792;2022-09-21T06:00:02;3.40;99.90
2657;DHT22;1338;48.176;11.792;2022-09-21T06:02:53;3.60;99.90
2657;DHT22;1338;48.176;11.792;2022-09-21T06:05:24;3.60;99.90
2657;DHT22;1338;48.176;11.792;2022-09-21T06:07:53;3.50;99.90
2657;DHT22;1338;48.176;11.792;2022-09-21T06:10:21;3.60;99.90
2657;DHT22;1338;48.176;11.792;2022-09-21T06:12:50;3.70;99.90
2657;DHT22;1338;48.176;11.792;2022-09-21T06:15:19;4.00;99.90
2657;DHT22;1338;48.176;11.792;2022-09-21T06:17:48;4.20;99.90
2657;DHT22;1338;48.176;11.792;2022-09-21T06:20:16;4.30;99.90
2657;DHT22;1338;48.176;11.792;2022-09-21T06:22:44;4.50;99.90
2657;DHT22;1338;48.176;11.792;2022-09-21T06:25:13;4.60;99.90
2657;DHT22;1338;48.176;11.792;2022-09-21T06:27:41;4.70;99.90
2657;DHT22;1338;48.176;11.792;2022-09-21T06:30:09;4.80;63.70
2657;DHT22;1338;48.176;11.792;2022-09-21T06:32:38;4.80;1.00
2657;DHT22;1338;48.176;11.792;2022-09-21T06:35:08;4.80;1.00
2657;DHT22;1338;48.176;11.792;2022-09-21T06:37:36;4.90;1.00
2657;DHT22;1338;48.176;11.792;2022-09-21T06:40:07;5.00;1.00
2657;DHT22;1338;48.176;11.792;2022-09-21T06:42:35;5.10;1.00
2657;DHT22;1338;48.176;11.792;2022-09-21T06:45:04;5.20;1.00
2657;DHT22;1338;48.176;11.792;2022-09-21T06:47:32;5.30;1.00
2657;DHT22;1338;48.176;11.792;2022-09-21T06:50:00;5.30;1.00
2657;DHT22;1338;48.176;11.792;2022-09-21T06:52:30;5.40;1.00
2657;DHT22;1338;48.176;11.792;2022-09-21T06:54:58;5.50;1.00
2657;DHT22;1338;48.176;11.792;2022-09-21T06:57:27;5.70;1.00
2657;DHT22;1338;48.176;11.792;2022-09-21T06:59:55;5.80;1.00
2657;DHT22;1338;48.176;11.792;2022-09-21T07:02:23;5.80;1.00
2657;DHT22;1338;48.176;11.792;2022-09-21T07:04:51;6.20;1.00
2657;DHT22;1338;48.176;11.792;2022-09-21T07:07:20;6.30;1.00
2657;DHT22;1338;48.176;11.792;2022-09-21T07:09:49;6.40;1.00
2657;DHT22;1338;48.176;11.792;2022-09-21T07:12:38;6.40;1.00
2657;DHT22;1338;48.176;11.792;2022-09-21T07:15:08;6.60;1.00
2657;DHT22;1338;48.176;11.792;2022-09-21T07:17:38;6.70;99.90
2657;DHT22;1338;48.176;11.792;2022-09-21T07:20:07;6.90;99.90
2657;DHT22;1338;48.176;11.792;2022-09-21T07:22:35;7.00;99.90
2657;DHT22;1338;48.176;11.792;2022-09-21T07:25:05;7.10;99.90
2657;DHT22;1338;48.176;11.792;2022-09-21T07:27:33;7.20;99.90
2657;DHT22;1338;48.176;11.792;2022-09-21T07:30:02;7.30;99.90
2657;DHT22;1338;48.176;11.792;2022-09-21T07:32:30;7.40;99.90
2657;DHT22;1338;48.176;11.792;2022-09-21T07:34:59;7.50;99.90
2657;DHT22;1338;48.176;11.792;2022-09-21T07:37:27;7.70;99.90
2657;DHT22;1338;48.176;11.792;2022-09-21T07:39:55;7.90;99.90
2657;DHT22;1338;48.176;11.792;2022-09-21T07:42:25;8.00;67.70
2657;DHT22;1338;48.176;11.792;2022-09-21T07:44:53;8.10;7.70
2657;DHT22;1338;48.176;11.792;2022-09-21T07:47:30;8.10;1.00
2657;DHT22;1338;48.176;11.792;2022-09-21T07:49:58;8.30;74.20
2657;DHT22;1338;48.176;11.792;2022-09-21T07:52:26;8.40;97.10
2657;DHT22;1338;48.176;11.792;2022-09-21T07:54:54;8.50;1.00
2657;DHT22;1338;48.176;11.792;2022-09-21T07:57:23;8.70;1.00
2657;DHT22;1338;48.176;11.792;2022-09-21T08:00:11;8.80;1.00
2657;DHT22;1338;48.176;11.792;2022-09-21T08:02:39;8.80;1.00
2657;DHT22;1338;48.176;11.792;2022-09-21T08:05:13;8.90;1.00
2657;DHT22;1338;48.176;11.792;2022-09-21T08:07:42;8.90;1.00
2657;DHT22;1338;48.176;11.792;2022-09-21T08:10:10;9.10;1.00
2657;DHT22;1338;48.176;11.792;2022-09-21T08:12:38;9.30;1.00
2657;DHT22;1338;48.176;11.792;2022-09-21T08:15:07;9.30;1.00
2657;DHT22;1338;48.176;11.792;2022-09-21T08:17:58;9.40;1.00
2657;DHT22;1338;48.176;11.792;2022-09-21T08:20:26;9.40;1.00
2657;DHT22;1338;48.176;11.792;2022-09-21T08:22:55;9.60;1.00
2657;DHT22;1338;48.176;11.792;2022-09-21T08:25:23;9.60;1.00
2657;DHT22;1338;48.176;11.792;2022-09-21T08:27:51;9.70;1.00
2657;DHT22;1338;48.176;11.792;2022-09-21T08:30:23;9.80;1.00
2657;DHT22;1338;48.176;11.792;2022-09-21T08:32:54;10.00;1.00
2657;DHT22;1338;48.176;11.792;2022-09-21T08:35:23;10.00;1.00
2657;DHT22;1338;48.176;11.792;2022-09-21T08:37:52;9.90;1.00
2657;DHT22;1338;48.176;11.792;2022-09-21T08:40:21;10.10;1.00
2657;DHT22;1338;48.176;11.792;2022-09-21T08:42:56;10.20;1.00
2657;DHT22;1338;48.176;11.792;2022-09-21T08:45:32;10.20;1.00
2657;DHT22;1338;48.176;11.792;2022-09-21T08:48:02;10.30;1.00
2657;DHT22;1338;48.176;11.792;2022-09-21T08:50:38;10.40;1.00
2657;DHT22;1338;48.176;11.792;2022-09-21T08:53:12;10.40;1.00
2657;DHT22;1338;48.176;11.792;2022-09-21T08:55:41;10.80;1.00
2657;DHT22;1338;48.176;11.792;2022-09-21T08:58:20;10.90;1.00
2657;DHT22;1338;48.176;11.792;2022-09-21T09:00:54;10.60;1.00
2657;DHT22;1338;48.176;11.792;2022-09-21T09:03:43;10.80;1.00
2657;DHT22;1338;48.176;11.792;2022-09-21T09:06:23;10.90;1.00
2657;DHT22;1338;48.176;11.792;2022-09-21T09:09:04;11.10;1.00
2657;DHT22;1338;48.176;11.792;2022-09-21T09:11:47;10.80;1.00
2657;DHT22;1338;48.176;11.792;2022-09-21T09:14:55;11.00;1.00
2657;DHT22;1338;48.176;11.792;2022-09-21T09:17:35;11.40;1.00
2657;DHT22;1338;48.176;11.792;2022-09-21T09:20:12;11.00;1.00
2657;DHT22;1338;48.176;11.792;2022-09-21T09:22:45;10.80;1.00
2657;DHT22;1338;48.176;11.792;2022-09-21T09:25:18;11.10;1.00
2657;DHT22;1338;48.176;11.792;2022-09-21T09:27:51;11.40;1.00
2657;DHT22;1338;48.176;11.792;2022-09-21T09:30:21;11.70;1.00
2657;DHT22;1338;48.176;11.792;2022-09-21T09:32:55;11.70;1.00
2657;DHT22;1338;48.176;11.792;2022-09-21T09:35:27;11.70;1.00
2657;DHT22;1338;48.176;11.792;2022-09-21T09:38:01;11.90;1.00
2657;DHT22;1338;48.176;11.792;2022-09-21T09:40:48;12.00;1.00
2657;DHT22;1338;48.176;11.792;2022-09-21T09:43:27;12.20;1.00
2657;DHT22;1338;48.176;11.792;2022-09-21T09:46:02;12.30;1.00
2657;DHT22;1338;48.176;11.792;2022-09-21T09:48:48;12.40;1.00
2657;DHT22;1338;48.176;11.792;2022-09-21T09:51:21;12.30;1.00
2657;DHT22;1338;48.176;11.792;2022-09-21T09:53:58;12.40;1.00
2657;DHT22;1338;48.176;11.792;2022-09-21T09:56:27;12.20;1.00
2657;DHT22;1338;48.176;11.792;2022-09-21T09:58:56;12.10;1.00
2657;DHT22;1338;48.176;11.792;2022-09-21T10:01:37;12.30;1.00
2657;DHT22;1338;48.176;11.792;2022-09-21T10:04:09;12.50;1.00
2657;DHT22;1338;48.176;11.792;2022-09-21T10:06:38;12.80;1.00
2657;DHT22;1338;48.176;11.792;2022-09-21T10:09:24;12.60;1.00
2657;DHT22;1338;48.176;11.792;2022-09-21T10:11:55;12.60;1.00
2657;DHT22;1338;48.176;11.792;2022-09-21T10:14:26;12.90;1.00
2657;DHT22;1338;48.176;11.792;2022-09-21T10:17:05;13.50;1.00
2657;DHT22;1338;48.176;11.792;2022-09-21T10:19:34;13.40;1.00
2657;DHT22;1338;48.176;11.792;2022-09-21T10:22:04;13.20;1.00
2657;DHT22;1338;48.176;11.792;2022-09-21T10:24:36;13.30;1.00
2657;DHT22;1338;48.176;11.792;2022-09-21T10:27:11;13.00;1.00
2657;DHT22;1338;48.176;11.792;2022-09-21T10:29:42;12.80;1.00
2657;DHT22;1338;48.176;11.792;2022-09-21T10:32:22;13.00;1.00
2657;DHT22;1338;48.176;11.792;2022-09-21T10:35:14;13.60;1.00
2657;DHT22;1338;48.176;11.792;2022-09-21T10:37:45;14.30;1.00
2657;DHT22;1338;48.176;11.792;2022-09-21T10:40:24;13.40;1.00
2657;DHT22;1338;48.176;11.792;2022-09-21T10:42:54;14.30;1.00
2657;DHT22;1338;48.176;11.792;2022-09-21T10:45:25;14.40;1.00
2657;DHT22;1338;48.176;11.792;2022-09-21T10:47:57;14.00;1.00
2657;DHT22;1338;48.176;11.792;2022-09-21T10:50:28;13.60;1.00
2657;DHT22;1338;48.176;11.792;2022-09-21T10:53:00;13.60;1.00
2657;DHT22;1338;48.176;11.792;2022-09-21T10:55:30;14.40;1.00
2657;DHT22;1338;48.176;11.792;2022-09-21T10:57:59;14.60;1.00
2657;DHT22;1338;48.176;11.792;2022-09-21T11:00:33;14.50;1.00
2657;DHT22;1338;48.176;11.792;2022-09-21T11:03:31;13.90;1.00
2657;DHT22;1338;48.176;11.792;2022-09-21T11:06:10;13.80;1.00
2657;DHT22;1338;48.176;11.792;2022-09-21T11:08:44;14.80;1.00
2657;DHT22;1338;48.176;11.792;2022-09-21T11:11:37;15.00;1.00
2657;DHT22;1338;48.176;11.792;2022-09-21T11:14:14;15.20;1.00
2657;DHT22;1338;48.176;11.792;2022-09-21T11:16:47;14.00;1.00
2657;DHT22;1338;48.176;11.792;2022-09-21T11:19:24;14.30;1.00
2657;DHT22;1338;48.176;11.792;2022-09-21T11:21:59;15.20;1.00
2657;DHT22;1338;48.176;11.792;2022-09-21T11:24:34;15.00;1.00
2657;DHT22;1338;48.176;11.792;2022-09-21T11:27:09;15.70;1.00
2657;DHT22;1338;48.176;11.792;2022-09-21T11:29:46;16.20;1.00
2657;DHT22;1338;48.176;11.792;2022-09-21T11:32:27;15.60;1.00
2657;DHT22;1338;48.176;11.792;2022-09-21T11:35:23;15.10;1.00
2657;DHT22;1338;48.176;11.792;2022-09-21T11:38:08;15.90;1.00
2657;DHT22;1338;48.176;11.792;2022-09-21T11:43:55;16.00;1.00
2657;DHT22;1338;48.176;11.792;2022-09-21T11:46:32;16.40;1.00
2657;DHT22;1338;48.176;11.792;2022-09-21T11:49:14;15.30;1.00
2657;DHT22;1338;48.176;11.792;2022-09-21T11:51:53;15.00;1.00
2657;DHT22;1338;48.176;11.792;2022-09-21T11:54:58;15.80;1.00
2657;DHT22;1338;48.176;11.792;2022-09-21T11:57:32;15.90;1.00
2657;DHT22;1338;48.176;11.792;2022-09-21T12:00:11;15.90;1.00
2657;DHT22;1338;48.176;11.792;2022-09-21T12:05:39;16.30;1.00
2657;DHT22;1338;48.176;11.792;2022-09-21T12:11:06;16.20;1.00
2657;DHT22;1338;48.176;11.792;2022-09-21T12:13:46;16.70;99.90
2657;DHT22;1338;48.176;11.792;2022-09-21T12:16:22;17.00;99.90
2657;DHT22;1338;48.176;11.792;2022-09-21T12:18:57;16.30;99.90
2657;DHT22;1338;48.176;11.792;2022-09-21T12:21:29;16.30;99.90
2657;DHT22;1338;48.176;11.792;2022-09-21T12:24:01;15.80;99.90
2657;DHT22;1338;48.176;11.792;2022-09-21T12:26:33;15.40;99.90
2657;DHT22;1338;48.176;11.792;2022-09-21T12:29:10;15.20;99.90
2657;DHT22;1338;48.176;11.792;2022-09-21T12:31:45;15.50;99.90
2657;DHT22;1338;48.176;11.792;2022-09-21T12:34:21;15.80;99.90
2657;DHT22;1338;48.176;11.792;2022-09-21T12:36:58;16.00;99.90
2657;DHT22;1338;48.176;11.792;2022-09-21T12:39:30;16.10;99.90
2657;DHT22;1338;48.176;11.792;2022-09-21T12:42:12;16.10;99.90
2657;DHT22;1338;48.176;11.792;2022-09-21T12:44:46;15.40;99.90
2657;DHT22;1338;48.176;11.792;2022-09-21T12:47:26;16.70;99.90
2657;DHT22;1338;48.176;11.792;2022-09-21T12:50:00;17.20;99.90
2657;DHT22;1338;48.176;11.792;2022-09-21T12:52:31;17.20;99.90
2657;DHT22;1338;48.176;11.792;2022-09-21T12:55:18;17.50;99.90
2657;DHT22;1338;48.176;11.792;2022-09-21T12:57:55;17.80;99.90
2657;DHT22;1338;48.176;11.792;2022-09-21T13:00:47;16.60;99.90
2657;DHT22;1338;48.176;11.792;2022-09-21T13:03:23;16.20;99.90
2657;DHT22;1338;48.176;11.792;2022-09-21T13:06:25;15.60;99.90
2657;DHT22;1338;48.176;11.792;2022-09-21T13:09:00;15.70;99.90
2657;DHT22;1338;48.176;11.792;2022-09-21T13:11:33;16.20;99.90
2657;DHT22;1338;48.176;11.792;2022-09-21T13:14:03;16.20;99.90
2657;DHT22;1338;48.176;11.792;2022-09-21T13:16:33;15.90;99.90
2657;DHT22;1338;48.176;11.792;2022-09-21T13:19:14;15.60;99.90
2657;DHT22;1338;48.176;11.792;2022-09-21T13:21:44;15.70;99.90
2657;DHT22;1338;48.176;11.792;2022-09-21T13:24:24;16.80;99.90
2657;DHT22;1338;48.176;11.792;2022-09-21T13:26:55;17.20;99.90
2657;DHT22;1338;48.176;11.792;2022-09-21T13:29:29;16.70;99.90
2657;DHT22;1338;48.176;11.792;2022-09-21T13:32:00;17.80;99.90
2657;DHT22;1338;48.176;11.792;2022-09-21T13:34:33;16.20;99.90
2657;DHT22;1338;48.176;11.792;2022-09-21T13:37:32;17.00;99.90
2657;DHT22;1338;48.176;11.792;2022-09-21T13:46:46;18.20;99.90
2657;DHT22;1338;48.176;11.792;2022-09-21T13:49:32;17.10;99.90
2657;DHT22;1338;48.176;11.792;2022-09-21T13:52:18;17.20;99.90
2657;DHT22;1338;48.176;11.792;2022-09-21T13:54:50;17.90;99.90
2657;DHT22;1338;48.176;11.792;2022-09-21T13:57:24;18.20;99.90
2657;DHT22;1338;48.176;11.792;2022-09-21T14:00:32;18.20;99.90
2657;DHT22;1338;48.176;11.792;2022-09-21T14:03:04;18.80;99.90
2657;DHT22;1338;48.176;11.792;2022-09-21T14:05:39;18.40;99.90
2657;DHT22;1338;48.176;11.792;2022-09-21T14:08:20;18.90;99.90
2657;DHT22;1338;48.176;11.792;2022-09-21T14:10:51;18.00;99.90
2657;DHT22;1338;48.176;11.792;2022-09-21T14:13:25;18.40;99.90
2657;DHT22;1338;48.176;11.792;2022-09-21T14:22:34;20.30;99.90
2657;DHT22;1338;48.176;11.792;2022-09-21T14:25:26;19.70;99.90
2657;DHT22;1338;48.176;11.792;2022-09-21T14:28:04;20.40;99.90
2657;DHT22;1338;48.176;11.792;2022-09-21T14:30:34;20.00;99.90
2657;DHT22;1338;48.176;11.792;2022-09-21T14:33:17;19.30;99.90
2657;DHT22;1338;48.176;11.792;2022-09-21T14:35:47;19.60;99.90
2657;DHT22;1338;48.176;11.792;2022-09-21T14:38:20;18.60;99.90
2657;DHT22;1338;48.176;11.792;2022-09-21T14:40:51;17.50;99.90
2657;DHT22;1338;48.176;11.792;2022-09-21T14:43:24;17.70;99.90
2657;DHT22;1338;48.176;11.792;2022-09-21T14:46:16;17.70;99.90
2657;DHT22;1338;48.176;11.792;2022-09-21T14:48:58;16.80;99.90
2657;DHT22;1338;48.176;11.792;2022-09-21T14:51:35;16.80;99.90
2657;DHT22;1338;48.176;11.792;2022-09-21T14:54:30;16.90;99.90
2657;DHT22;1338;48.176;11.792;2022-09-21T14:57:12;16.70;99.90
2657;DHT22;1338;48.176;11.792;2022-09-21T14:59:55;16.50;99.90
2657;DHT22;1338;48.176;11.792;2022-09-21T15:02:27;17.80;99.90
2657;DHT22;1338;48.176;11.792;2022-09-21T15:05:13;18.10;99.90
2657;DHT22;1338;48.176;11.792;2022-09-21T15:07:50;18.20;99.90
2657;DHT22;1338;48.176;11.792;2022-09-21T15:10:51;18.30;99.90
2657;DHT22;1338;48.176;11.792;2022-09-21T15:13:35;17.30;99.90
2657;DHT22;1338;48.176;11.792;2022-09-21T15:16:23;18.20;99.90
2657;DHT22;1338;48.176;11.792;2022-09-21T15:19:07;18.80;99.90
2657;DHT22;1338;48.176;11.792;2022-09-21T15:21:40;19.30;99.90
2657;DHT22;1338;48.176;11.792;2022-09-21T15:24:17;18.70;99.90
2657;DHT22;1338;48.176;11.792;2022-09-21T15:26:48;19.40;99.90
2657;DHT22;1338;48.176;11.792;2022-09-21T15:29:24;18.50;99.90
2657;DHT22;1338;48.176;11.792;2022-09-21T15:31:53;19.10;99.90
2657;DHT22;1338;48.176;11.792;2022-09-21T15:34:22;18.60;99.90
2657;DHT22;1338;48.176;11.792;2022-09-21T15:36:51;18.70;99.90
2657;DHT22;1338;48.176;11.792;2022-09-21T15:39:21;18.20;99.90
2657;DHT22;1338;48.176;11.792;2022-09-21T15:44:45;18.80;99.90
2657;DHT22;1338;48.176;11.792;2022-09-21T15:47:16;19.30;99.90
2657;DHT22;1338;48.176;11.792;2022-09-21T15:49:45;19.30;99.90
2657;DHT22;1338;48.176;11.792;2022-09-21T15:52:19;18.90;99.90
2657;DHT22;1338;48.176;11.792;2022-09-21T15:54:53;18.40;99.90
2657;DHT22;1338;48.176;11.792;2022-09-21T15:57:29;19.00;99.90
2657;DHT22;1338;48.176;11.792;2022-09-21T16:00:06;18.90;99.90
2657;DHT22;1338;48.176;11.792;2022-09-21T16:05:42;18.40;99.90
2657;DHT22;1338;48.176;11.792;2022-09-21T16:08:28;18.20;99.90
2657;DHT22;1338;48.176;11.792;2022-09-21T16:11:17;18.70;99.90
2657;DHT22;1338;48.176;11.792;2022-09-21T16:13:57;18.40;99.90
2657;DHT22;1338;48.176;11.792;2022-09-21T16:17:23;19.10;99.90
2657;DHT22;1338;48.176;11.792;2022-09-21T16:20:17;18.20;99.90
2657;DHT22;1338;48.176;11.792;2022-09-21T16:22:47;18.30;99.90
2657;DHT22;1338;48.176;11.792;2022-09-21T16:25:34;18.80;99.90
2657;DHT22;1338;48.176;11.792;2022-09-21T16:28:06;18.70;99.90
2657;DHT22;1338;48.176;11.792;2022-09-21T16:30:53;18.40;99.90
2657;DHT22;1338;48.176;11.792;2022-09-21T16:33:34;17.40;99.90
2657;DHT22;1338;48.176;11.792;2022-09-21T16:36:03;17.70;99.90
2657;DHT22;1338;48.176;11.792;2022-09-21T16:38:32;17.50;99.90
2657;DHT22;1338;48.176;11.792;2022-09-21T16:41:00;17.80;99.90
2657;DHT22;1338;48.176;11.792;2022-09-21T16:43:29;17.80;99.90
2657;DHT22;1338;48.176;11.792;2022-09-21T16:46:00;18.10;99.90
2657;DHT22;1338;48.176;11.792;2022-09-21T16:48:29;17.60;99.90
2657;DHT22;1338;48.176;11.792;2022-09-21T16:50:57;17.10;99.90
2657;DHT22;1338;48.176;11.792;2022-09-21T16:53:26;17.00;99.90
2657;DHT22;1338;48.176;11.792;2022-09-21T16:55:54;17.10;99.90
2657;DHT22;1338;48.176;11.792;2022-09-21T16:58:22;16.80;99.90
2657;DHT22;1338;48.176;11.792;2022-09-21T17:00:52;16.70;99.90
2657;DHT22;1338;48.176;11.792;2022-09-21T17:03:23;16.50;99.90
2657;DHT22;1338;48.176;11.792;2022-09-21T17:05:53;16.30;99.90
2657;DHT22;1338;48.176;11.792;2022-09-21T17:08:23;16.10;99.90
2657;DHT22;1338;48.176;11.792;2022-09-21T17:10:52;15.90;99.90
2657;DHT22;1338;48.176;11.792;2022-09-21T17:13:20;15.60;99.90
2657;DHT22;1338;48.176;11.792;2022-09-21T17:15:49;15.20;99.90